createdAt,value
2018-02-17T00:00:18.061Z,3.20
2018-02-17T00:02:45.512Z,3.20
2018-02-17T00:05:14.270Z,3.20
2018-02-17T00:07:41.714Z,3.10
2018-02-17T00:10:09.184Z,3.10
2018-02-17T00:12:36.640Z,3.00
2018-02-17T00:15:04.123Z,2.90
2018-02-17T00:17:32.337Z,3.00
2018-02-17T00:19:59.822Z,3.00
2018-02-17T00:22:27.277Z,3.00
2018-02-17T00:24:54.745Z,3.10
2018-02-17T00:27:22.192Z,3.10
2018-02-17T00:29:50.430Z,3.20
2018-02-17T00:32:17.873Z,3.10
2018-02-17T00:34:45.351Z,3.20
2018-02-17T00:37:12.796Z,3.30
2018-02-17T00:39:41.154Z,3.30
2018-02-17T00:42:08.605Z,3.30
2018-02-17T00:44:36.095Z,3.30
2018-02-17T00:47:03.542Z,3.30
2018-02-17T00:49:31.017Z,3.20
2018-02-17T00:51:58.469Z,3.30
2018-02-17T00:54:25.940Z,3.40
2018-02-17T00:56:53.385Z,3.50
2018-02-17T00:59:21.629Z,3.50
2018-02-17T01:01:49.083Z,3.50
2018-02-17T01:04:16.555Z,3.60
2018-02-17T01:06:44.005Z,3.60
2018-02-17T01:09:11.493Z,3.50
2018-02-17T01:11:38.942Z,3.40
2018-02-17T01:14:07.177Z,3.40
2018-02-17T01:16:34.621Z,3.40
2018-02-17T01:19:02.101Z,3.40
2018-02-17T01:21:29.540Z,3.50
2018-02-17T01:23:57.786Z,3.40
2018-02-17T01:26:25.224Z,3.40
2018-02-17T01:28:52.717Z,3.50
2018-02-17T01:31:20.166Z,3.50
2018-02-17T01:33:47.622Z,3.40
2018-02-17T01:36:15.859Z,3.60
2018-02-17T01:38:43.302Z,3.60
2018-02-17T01:41:10.776Z,3.60
2018-02-17T01:43:39.013Z,3.70
2018-02-17T01:46:06.454Z,3.70
2018-02-17T01:48:33.921Z,3.70
2018-02-17T01:51:01.369Z,3.70
2018-02-17T01:53:28.841Z,3.60
2018-02-17T01:55:56.290Z,3.60
2018-02-17T01:58:24.520Z,3.60
2018-02-17T02:00:51.960Z,3.60
2018-02-17T02:03:20.208Z,3.80
2018-02-17T02:05:47.648Z,3.80
2018-02-17T02:08:15.097Z,3.80
2018-02-17T02:10:43.338Z,3.80
2018-02-17T02:13:10.788Z,3.80
2018-02-17T02:15:38.249Z,3.90
2018-02-17T02:18:05.697Z,4.00
2018-02-17T02:20:33.170Z,4.00
2018-02-17T02:23:01.382Z,4.10
2018-02-17T02:25:28.841Z,4.10
2018-02-17T02:27:56.281Z,4.00
2018-02-17T02:30:24.524Z,4.00
2018-02-17T02:32:51.966Z,4.00
2018-02-17T02:35:19.435Z,4.00
2018-02-17T02:37:46.868Z,4.10
2018-02-17T02:40:14.344Z,4.10
2018-02-17T02:42:41.780Z,4.10
2018-02-17T02:45:09.313Z,4.00
2018-02-17T02:47:36.769Z,4.10
2018-02-17T02:50:05.001Z,4.20
2018-02-17T02:52:32.450Z,4.10
2018-02-17T02:54:59.929Z,4.20
2018-02-17T02:57:27.378Z,4.20
2018-02-17T02:59:55.608Z,4.30
2018-02-17T03:02:23.053Z,4.20
2018-02-17T03:04:50.525Z,4.30
2018-02-17T03:07:17.976Z,4.20
2018-02-17T03:09:46.216Z,4.20
2018-02-17T03:12:13.665Z,4.10
2018-02-17T03:14:41.159Z,4.00
2018-02-17T03:17:08.607Z,4.00
2018-02-17T03:19:36.412Z,4.00
2018-02-17T03:22:04.641Z,4.00
2018-02-17T03:24:32.922Z,4.20
2018-02-17T03:27:00.324Z,4.20
2018-02-17T03:29:27.801Z,4.20
2018-02-17T03:31:55.256Z,4.20
2018-02-17T03:34:22.737Z,4.10
2018-02-17T03:36:50.292Z,4.20
2018-02-17T03:39:17.825Z,4.30
2018-02-17T03:41:45.277Z,4.20
2018-02-17T03:44:12.752Z,4.20
2018-02-17T03:46:40.204Z,4.20
2018-02-17T03:49:07.686Z,4.20
2018-02-17T03:51:35.136Z,4.20
2018-02-17T03:54:02.613Z,4.20
2018-02-17T03:56:30.065Z,4.20
2018-02-17T03:58:58.304Z,4.20
2018-02-17T04:01:25.745Z,4.10
2018-02-17T04:03:53.217Z,4.20
2018-02-17T04:06:20.678Z,4.20
2018-02-17T04:08:48.145Z,4.20
2018-02-17T04:11:15.641Z,4.30
2018-02-17T04:13:43.121Z,4.30
2018-02-17T04:16:10.568Z,4.20
2018-02-17T04:18:38.020Z,4.10
2018-02-17T04:21:05.503Z,4.10
2018-02-17T04:23:32.972Z,4.10
2018-02-17T04:26:00.420Z,4.10
2018-02-17T04:28:28.641Z,4.00
2018-02-17T04:30:56.109Z,4.00
2018-02-17T04:33:23.585Z,3.60
2018-02-17T04:35:51.040Z,3.40
2018-02-17T04:38:18.536Z,3.30
2018-02-17T04:40:46.538Z,3.40
2018-02-17T04:43:19.521Z,3.40
2018-02-17T04:45:46.984Z,3.40
2018-02-17T04:48:14.996Z,3.40
2018-02-17T04:50:52.385Z,3.30
2018-02-17T04:53:21.716Z,3.30
2018-02-17T04:55:52.120Z,3.50
2018-02-17T05:01:27.534Z,3.50
2018-02-17T05:03:55.006Z,3.60
2018-02-17T05:06:26.821Z,3.60
2018-02-17T05:09:09.949Z,3.60
2018-02-17T05:11:37.396Z,3.60
2018-02-17T05:14:18.758Z,3.70
2018-02-17T05:16:50.824Z,3.70
2018-02-17T05:22:22.798Z,3.80
2018-02-17T05:24:50.737Z,3.80
2018-02-17T05:27:22.519Z,3.80
2018-02-17T05:30:04.864Z,3.80
2018-02-17T05:32:32.320Z,3.80
2018-02-17T05:34:59.793Z,3.80
2018-02-17T05:37:27.255Z,3.90
2018-02-17T05:39:54.724Z,3.90
2018-02-17T05:42:22.177Z,4.00
2018-02-17T05:47:45.860Z,3.90
2018-02-17T05:50:18.931Z,3.90
2018-02-17T05:52:46.381Z,3.90
2018-02-17T05:55:13.857Z,3.90
2018-02-17T05:57:41.325Z,3.80
2018-02-17T06:00:08.788Z,3.80
2018-02-17T06:02:36.545Z,3.70
2018-02-17T06:05:04.021Z,3.40
2018-02-17T06:07:31.473Z,3.30
2018-02-17T06:09:58.955Z,3.30
2018-02-17T06:12:26.406Z,3.20
2018-02-17T06:14:54.656Z,2.90
2018-02-17T06:17:22.102Z,2.90
2018-02-17T06:19:49.584Z,2.80
2018-02-17T06:22:17.037Z,2.70
2018-02-17T06:24:44.521Z,2.60
2018-02-17T06:27:12.747Z,2.50
2018-02-17T06:29:40.216Z,2.50
2018-02-17T06:32:07.674Z,2.60
2018-02-17T06:34:35.148Z,2.70
2018-02-17T06:37:02.605Z,2.90
2018-02-17T06:39:30.076Z,2.90
2018-02-17T06:41:57.529Z,3.00
2018-02-17T06:44:24.998Z,3.00
2018-02-17T06:46:52.457Z,3.00
2018-02-17T06:49:19.923Z,3.10
2018-02-17T06:51:47.381Z,3.20
2018-02-17T06:54:14.865Z,3.20
2018-02-17T06:56:42.310Z,3.20
2018-02-17T06:59:10.557Z,3.20
2018-02-17T07:01:38.042Z,3.20
2018-02-17T07:04:05.520Z,3.00
2018-02-17T07:06:32.982Z,3.10
2018-02-17T07:09:00.473Z,2.90
2018-02-17T07:11:28.693Z,2.70
2018-02-17T07:13:56.173Z,2.60
2018-02-17T07:16:23.622Z,2.50
2018-02-17T07:18:51.837Z,2.40
2018-02-17T07:21:19.312Z,2.40
2018-02-17T07:23:46.769Z,2.30
2018-02-17T07:26:14.267Z,2.40
2018-02-17T07:28:41.737Z,2.40
2018-02-17T07:31:09.245Z,2.40
2018-02-17T07:33:37.490Z,2.50
2018-02-17T07:36:04.969Z,2.50
2018-02-17T07:38:32.427Z,2.60
2018-02-17T07:41:00.028Z,2.60
2018-02-17T07:43:27.472Z,2.60
2018-02-17T07:45:54.970Z,2.70
2018-02-17T07:48:22.421Z,2.70
2018-02-17T07:50:49.913Z,2.90
2018-02-17T07:53:17.585Z,2.90
2018-02-17T07:55:45.053Z,3.00
2018-02-17T07:58:12.528Z,3.10
2018-02-17T08:00:40.029Z,3.10
2018-02-17T08:03:08.256Z,3.10
2018-02-17T08:05:35.736Z,3.00
2018-02-17T08:08:03.181Z,3.00
2018-02-17T08:10:30.681Z,3.00
2018-02-17T08:12:58.142Z,3.00
2018-02-17T08:15:25.620Z,3.00
2018-02-17T08:17:53.076Z,2.90
2018-02-17T08:20:20.571Z,2.90
2018-02-17T08:22:48.790Z,2.60
2018-02-17T08:25:16.262Z,2.60
2018-02-17T08:27:43.710Z,2.60
2018-02-17T08:30:11.167Z,2.70
2018-02-17T08:32:38.637Z,2.70
2018-02-17T08:35:06.098Z,2.80
2018-02-17T08:37:33.573Z,2.90
2018-02-17T08:40:01.029Z,3.00
2018-02-17T08:42:28.520Z,3.10
2018-02-17T08:44:55.973Z,3.10
2018-02-17T08:47:23.453Z,3.00
2018-02-17T08:49:50.904Z,3.10
2018-02-17T08:52:18.425Z,3.20
2018-02-17T08:54:45.873Z,3.20
2018-02-17T08:57:13.365Z,3.30
2018-02-17T08:59:40.870Z,3.40
2018-02-17T09:02:09.125Z,3.40
2018-02-17T09:04:36.621Z,3.40
2018-02-17T09:07:04.872Z,3.40
2018-02-17T09:09:32.324Z,3.40
2018-02-17T09:11:59.809Z,3.40
2018-02-17T09:14:27.295Z,3.50
2018-02-17T09:16:54.764Z,3.50
2018-02-17T09:19:22.221Z,3.50
2018-02-17T09:21:49.702Z,3.60
2018-02-17T09:24:17.171Z,3.80
2018-02-17T09:26:44.642Z,3.90
2018-02-17T09:29:12.098Z,3.90
2018-02-17T09:31:39.585Z,3.70
2018-02-17T09:34:07.034Z,3.70
2018-02-17T09:36:34.535Z,3.50
2018-02-17T09:39:02.023Z,3.40
2018-02-17T09:41:29.497Z,3.30
2018-02-17T09:43:56.940Z,3.30
2018-02-17T09:46:24.420Z,3.10
2018-02-17T09:48:51.887Z,3.20
2018-02-17T09:51:19.370Z,3.10
2018-02-17T09:53:46.841Z,3.00
2018-02-17T09:56:14.317Z,3.00
2018-02-17T09:58:41.781Z,3.00
2018-02-17T10:01:09.270Z,2.90
2018-02-17T10:03:37.499Z,3.20
2018-02-17T10:06:04.986Z,3.10
2018-02-17T10:08:32.450Z,3.20
2018-02-17T10:11:00.753Z,3.40
2018-02-17T10:13:28.197Z,3.30
2018-02-17T10:15:55.691Z,3.30
2018-02-17T10:18:23.149Z,3.30
2018-02-17T10:20:50.639Z,3.30
2018-02-17T10:23:18.133Z,3.20
2018-02-17T10:25:46.374Z,3.40
2018-02-17T10:28:13.846Z,3.40
2018-02-17T10:30:41.362Z,3.40
2018-02-17T10:33:08.806Z,3.30
2018-02-17T10:35:36.321Z,3.30
2018-02-17T10:38:03.774Z,3.40
2018-02-17T10:40:31.253Z,3.40
2018-02-17T10:42:58.701Z,3.40
2018-02-17T10:45:26.186Z,3.40
2018-02-17T10:47:53.638Z,3.30
2018-02-17T10:50:21.145Z,3.40
2018-02-17T10:52:48.598Z,3.50
2018-02-17T10:55:16.065Z,3.40
2018-02-17T10:57:43.516Z,3.40
2018-02-17T11:00:10.994Z,3.50
2018-02-17T11:02:38.453Z,3.40
2018-02-17T11:05:05.936Z,3.20
2018-02-17T11:07:33.399Z,3.20
2018-02-17T11:10:01.636Z,3.10
2018-02-17T11:12:29.882Z,3.10
2018-02-17T11:14:57.358Z,3.10
2018-02-17T11:17:24.835Z,3.10
2018-02-17T11:19:52.305Z,3.00
2018-02-17T11:22:19.762Z,3.10
2018-02-17T11:24:47.250Z,3.20
2018-02-17T11:27:14.717Z,3.30
2018-02-17T11:29:42.190Z,3.20
2018-02-17T11:32:09.690Z,3.40
2018-02-17T11:34:37.176Z,3.30
2018-02-17T11:37:05.429Z,3.20
2018-02-17T11:39:32.881Z,3.10
2018-02-17T11:42:00.360Z,3.00
2018-02-17T11:44:27.817Z,2.90
2018-02-17T11:46:55.292Z,2.80
2018-02-17T11:49:22.753Z,2.80
2018-02-17T11:51:50.233Z,2.90
2018-02-17T11:54:17.689Z,2.90
2018-02-17T11:56:45.182Z,2.90
2018-02-17T11:59:12.652Z,2.90
2018-02-17T12:01:40.145Z,2.80
2018-02-17T12:04:07.597Z,2.70
2018-02-17T12:06:35.113Z,2.70
2018-02-17T12:09:03.353Z,2.70
2018-02-17T12:11:30.848Z,2.70
2018-02-17T12:13:58.323Z,2.80
2018-02-17T12:16:25.796Z,2.80
2018-02-17T12:18:53.262Z,2.80
2018-02-17T12:21:20.741Z,2.70
2018-02-17T12:23:48.192Z,2.70
2018-02-17T12:26:15.689Z,2.70
2018-02-17T12:28:43.911Z,2.70
2018-02-17T12:31:11.425Z,2.60
2018-02-17T12:33:38.885Z,2.70
2018-02-17T12:36:06.363Z,2.50
2018-02-17T12:38:34.105Z,2.40
2018-02-17T12:41:01.581Z,2.50
2018-02-17T12:43:29.060Z,2.50
2018-02-17T12:45:56.623Z,2.50
2018-02-17T12:48:24.201Z,2.50
2018-02-17T12:50:51.695Z,2.60
2018-02-17T12:53:19.215Z,2.60
2018-02-17T12:55:46.653Z,2.60
2018-02-17T12:58:14.196Z,2.40
2018-02-17T13:00:41.689Z,2.40
2018-02-17T13:03:09.166Z,2.40
2018-02-17T13:05:36.747Z,2.40
2018-02-17T13:08:06.119Z,2.60
2018-02-17T13:10:33.597Z,2.50
2018-02-17T13:13:01.083Z,2.50
2018-02-17T13:15:28.558Z,2.50
2018-02-17T13:17:56.020Z,2.40
2018-02-17T13:20:23.497Z,2.40
2018-02-17T13:22:50.972Z,2.50
2018-02-17T13:25:18.472Z,2.50
2018-02-17T13:27:45.932Z,2.50
2018-02-17T13:30:13.450Z,2.40
2018-02-17T13:32:40.912Z,2.30
2018-02-17T13:35:08.422Z,2.30
2018-02-17T13:37:35.880Z,2.20
2018-02-17T13:40:03.381Z,2.10
2018-02-17T13:42:30.835Z,2.10
2018-02-17T13:44:58.313Z,2.10
2018-02-17T13:47:25.785Z,2.00
2018-02-17T13:49:53.322Z,2.10
2018-02-17T13:52:20.786Z,2.00
2018-02-17T13:54:48.286Z,2.00
2018-02-17T13:57:15.735Z,2.20
2018-02-17T13:59:43.436Z,2.20
2018-02-17T14:02:10.668Z,2.20
2018-02-17T14:04:38.153Z,2.10
2018-02-17T14:07:05.608Z,2.20
2018-02-17T14:09:33.094Z,2.20
2018-02-17T14:12:00.562Z,2.20
2018-02-17T14:14:28.045Z,2.20
2018-02-17T14:16:55.502Z,2.30
2018-02-17T14:19:22.977Z,2.30
2018-02-17T14:21:50.427Z,2.10
2018-02-17T14:24:17.910Z,2.20
2018-02-17T14:26:45.354Z,2.30
2018-02-17T14:29:12.861Z,2.20
2018-02-17T14:31:40.321Z,2.20
2018-02-17T14:34:07.818Z,2.30
2018-02-17T14:36:35.282Z,2.20
2018-02-17T14:39:02.762Z,2.20
2018-02-17T14:41:30.210Z,2.10
2018-02-17T14:43:57.688Z,2.00
2018-02-17T14:46:25.145Z,1.90
2018-02-17T14:48:52.642Z,1.80
2018-02-17T14:51:20.118Z,1.90
2018-02-17T14:53:47.604Z,2.00
2018-02-17T14:56:15.065Z,1.80
2018-02-17T14:58:42.555Z,1.80
2018-02-17T15:01:10.024Z,1.70
2018-02-17T15:03:37.505Z,1.70
2018-02-17T15:06:04.961Z,1.70
2018-02-17T15:08:32.433Z,1.70
2018-02-17T15:10:59.970Z,1.70
2018-02-17T15:13:27.445Z,1.80
2018-02-17T15:15:54.897Z,1.80
2018-02-17T15:18:22.369Z,1.70
2018-02-17T15:20:49.845Z,1.70
2018-02-17T15:23:17.321Z,1.70
2018-02-17T15:25:44.782Z,1.70
2018-02-17T15:28:12.370Z,1.60
2018-02-17T15:30:39.827Z,1.50
2018-02-17T15:33:07.302Z,1.50
2018-02-17T15:35:34.766Z,1.50
2018-02-17T15:38:02.243Z,1.50
2018-02-17T15:40:29.704Z,1.40
2018-02-17T15:42:57.176Z,1.40
2018-02-17T15:45:24.652Z,1.50
2018-02-17T15:47:52.138Z,1.50
2018-02-17T15:50:19.590Z,1.50
2018-02-17T15:52:47.077Z,1.40
2018-02-17T15:55:14.533Z,1.40
2018-02-17T15:57:42.008Z,1.40
2018-02-17T16:00:10.377Z,1.40
2018-02-17T16:02:38.637Z,1.40
2018-02-17T16:05:06.102Z,1.40
2018-02-17T16:07:33.572Z,1.30
2018-02-17T16:10:01.052Z,1.30
2018-02-17T16:12:28.521Z,1.30
2018-02-17T16:14:56.001Z,1.30
2018-02-17T16:17:23.461Z,1.30
2018-02-17T16:19:50.945Z,1.40
2018-02-17T16:22:18.409Z,1.30
2018-02-17T16:24:45.889Z,1.40
2018-02-17T16:27:13.334Z,1.30
2018-02-17T16:29:40.816Z,1.30
2018-02-17T16:32:08.271Z,1.30
2018-02-17T16:34:35.741Z,1.30
2018-02-17T16:37:03.189Z,1.40
2018-02-17T16:39:30.669Z,1.40
2018-02-17T16:41:58.145Z,1.40
2018-02-17T16:44:25.633Z,1.30
2018-02-17T16:46:53.089Z,1.30
2018-02-17T16:49:20.570Z,1.30
2018-02-17T16:51:48.040Z,1.30
2018-02-17T16:54:15.525Z,1.20
2018-02-17T16:56:42.993Z,1.20
2018-02-17T16:59:10.497Z,1.20
2018-02-17T17:01:38.718Z,1.10
2018-02-17T17:04:06.199Z,1.20
2018-02-17T17:06:33.656Z,1.10
2018-02-17T17:09:01.125Z,1.10
2018-02-17T17:11:28.587Z,1.20
2018-02-17T17:13:56.069Z,1.20
2018-02-17T17:16:23.525Z,1.10
2018-02-17T17:18:51.130Z,1.20
2018-02-17T17:21:18.954Z,1.20
2018-02-17T17:23:47.213Z,1.20
2018-02-17T17:26:14.661Z,1.20
2018-02-17T17:28:42.141Z,1.10
2018-02-17T17:31:09.633Z,1.10
2018-02-17T17:33:37.105Z,1.10
2018-02-17T17:36:04.570Z,1.20
2018-02-17T17:38:32.041Z,1.20
2018-02-17T17:40:59.508Z,1.20
2018-02-17T17:43:26.989Z,1.30
2018-02-17T17:45:54.455Z,1.20
2018-02-17T17:48:21.938Z,1.20
2018-02-17T17:50:49.386Z,1.20
2018-02-17T17:53:16.862Z,1.20
2018-02-17T17:55:44.314Z,1.20
2018-02-17T17:58:11.789Z,1.10
2018-02-17T18:00:39.250Z,1.10
2018-02-17T18:03:06.734Z,1.10
2018-02-17T18:05:34.184Z,1.10
2018-02-17T18:08:01.659Z,1.20
2018-02-17T18:10:29.114Z,1.10
2018-02-17T18:12:56.718Z,1.10
2018-02-17T18:15:24.168Z,1.20
2018-02-17T18:17:51.654Z,1.20
2018-02-17T18:20:19.115Z,1.20
2018-02-17T18:22:46.585Z,1.20
2018-02-17T18:25:14.045Z,1.20
2018-02-17T18:27:42.291Z,1.20
2018-02-17T18:30:09.753Z,1.20
2018-02-17T18:32:37.235Z,1.10
2018-02-17T18:35:04.696Z,1.10
2018-02-17T18:37:33.418Z,1.20
2018-02-17T18:40:00.872Z,1.30
2018-02-17T18:42:28.333Z,1.20
2018-02-17T18:44:55.784Z,1.30
2018-02-17T18:47:23.265Z,1.30
2018-02-17T18:49:50.709Z,1.30
2018-02-17T18:52:18.190Z,1.30
2018-02-17T18:54:45.647Z,1.20
2018-02-17T18:57:13.128Z,1.20
2018-02-17T18:59:40.584Z,1.10
2018-02-17T19:02:08.071Z,1.10
2018-02-17T19:04:35.525Z,1.10
2018-02-17T19:07:03.008Z,1.20
2018-02-17T19:09:30.464Z,1.20
2018-02-17T19:11:57.996Z,1.10
2018-02-17T19:14:25.402Z,1.10
2018-02-17T19:16:53.635Z,1.10
2018-02-17T19:19:21.083Z,1.10
2018-02-17T19:21:48.566Z,1.20
2018-02-17T19:24:16.017Z,1.10
2018-02-17T19:26:43.501Z,1.20
2018-02-17T19:29:10.968Z,1.10
2018-02-17T19:31:38.438Z,1.10
2018-02-17T19:34:05.894Z,1.10
2018-02-17T19:36:33.372Z,1.10
2018-02-17T19:39:00.820Z,1.10
2018-02-17T19:41:29.066Z,1.20
2018-02-17T19:43:56.517Z,1.10
2018-02-17T19:46:24.000Z,1.20
2018-02-17T19:48:51.461Z,1.20
2018-02-17T19:51:18.934Z,1.10
2018-02-17T19:53:46.385Z,1.20
2018-02-17T19:56:13.866Z,1.20
2018-02-17T19:58:41.328Z,1.10
2018-02-17T20:01:08.805Z,1.00
2018-02-17T20:03:36.262Z,1.00
2018-02-17T20:06:03.733Z,1.00
2018-02-17T20:08:31.177Z,1.10
2018-02-17T20:10:59.493Z,1.10
2018-02-17T20:13:26.948Z,1.10
2018-02-17T20:15:55.199Z,1.10
2018-02-17T20:18:22.659Z,1.10
2018-02-17T20:20:50.133Z,1.10
2018-02-17T20:23:17.593Z,1.00
2018-02-17T20:25:45.073Z,1.00
2018-02-17T20:28:12.516Z,1.10
2018-02-17T20:30:40.000Z,1.00
2018-02-17T20:33:07.454Z,1.00
2018-02-17T20:35:34.974Z,1.00
2018-02-17T20:38:02.384Z,1.10
2018-02-17T20:40:29.890Z,1.00
2018-02-17T20:42:57.343Z,1.20
2018-02-17T20:45:24.793Z,1.10
2018-02-17T20:47:52.270Z,1.20
2018-02-17T20:50:19.745Z,1.00
2018-02-17T20:52:47.206Z,1.00
2018-02-17T20:55:14.722Z,1.00
2018-02-17T20:57:42.157Z,1.00
2018-02-17T21:00:09.638Z,1.10
2018-02-17T21:02:37.088Z,1.10
2018-02-17T21:05:04.567Z,1.10
2018-02-17T21:07:32.020Z,1.10
2018-02-17T21:10:00.237Z,1.10
2018-02-17T21:12:27.706Z,1.10
2018-02-17T21:14:55.163Z,1.20
2018-02-17T21:17:23.393Z,1.30
2018-02-17T21:19:50.870Z,1.20
2018-02-17T21:22:18.326Z,1.30
2018-02-17T21:24:46.594Z,1.30
2018-02-17T21:27:14.045Z,1.30
2018-02-17T21:29:42.276Z,1.20
2018-02-17T21:32:09.757Z,1.20
2018-02-17T21:34:37.245Z,1.10
2018-02-17T21:37:04.697Z,1.20
2018-02-17T21:39:32.169Z,1.10
2018-02-17T21:41:59.616Z,1.00
2018-02-17T21:44:27.109Z,1.10
2018-02-17T21:46:55.326Z,1.10
2018-02-17T21:49:22.793Z,1.00
2018-02-17T21:51:50.273Z,1.10
2018-02-17T21:54:17.720Z,1.10
2018-02-17T21:56:45.193Z,1.10
2018-02-17T21:59:12.651Z,1.10
2018-02-17T22:01:40.132Z,1.20
2018-02-17T22:04:07.580Z,1.20
2018-02-17T22:06:35.049Z,1.30
2018-02-17T22:09:02.496Z,1.10
2018-02-17T22:11:29.988Z,1.10
2018-02-17T22:13:57.429Z,1.00
2018-02-17T22:16:24.913Z,1.10
2018-02-17T22:18:52.366Z,1.10
2018-02-17T22:21:20.609Z,1.10
2018-02-17T22:23:48.058Z,1.10
2018-02-17T22:26:15.540Z,1.00
2018-02-17T22:28:42.994Z,1.10
2018-02-17T22:31:10.470Z,1.10
2018-02-17T22:33:37.926Z,1.10
2018-02-17T22:36:05.402Z,1.10
2018-02-17T22:38:32.869Z,1.20
2018-02-17T22:41:00.360Z,1.10
2018-02-17T22:43:27.795Z,1.00
2018-02-17T22:45:56.036Z,1.10
2018-02-17T22:48:23.489Z,1.10
2018-02-17T22:50:50.973Z,1.20
2018-02-17T22:53:18.433Z,1.10
2018-02-17T22:55:45.909Z,1.20
2018-02-17T22:58:13.361Z,1.30
2018-02-17T23:00:40.837Z,1.30
2018-02-17T23:03:08.297Z,1.20
2018-02-17T23:05:35.817Z,1.20
2018-02-17T23:08:03.233Z,1.30
2018-02-17T23:10:30.713Z,1.30
2018-02-17T23:12:58.345Z,1.30
2018-02-17T23:15:25.829Z,1.30
2018-02-17T23:17:54.054Z,1.30
2018-02-17T23:20:21.520Z,1.30
2018-02-17T23:22:48.969Z,1.30
2018-02-17T23:25:16.460Z,1.30
2018-02-17T23:27:43.911Z,1.30
2018-02-17T23:30:11.394Z,1.30
2018-02-17T23:32:38.851Z,1.30
2018-02-17T23:35:07.082Z,1.40
2018-02-17T23:37:34.544Z,1.30
2018-02-17T23:40:02.030Z,1.40
2018-02-17T23:42:29.488Z,1.40
2018-02-17T23:44:56.961Z,1.30
2018-02-17T23:47:24.887Z,1.40
2018-02-17T23:49:52.353Z,1.40
2018-02-17T23:52:19.805Z,1.50
2018-02-17T23:54:47.273Z,1.30
2018-02-17T23:57:14.740Z,1.30
2018-02-17T23:59:42.245Z,1.20
